Time;durP1;ratioP1;P1;durP2;ratioP2;P2;SDS_P1;SDS_P2;PMS_P1;PMS_P2;Temp;Humidity;BMP_temperature;BMP_pressure;BME280_temperature;BME280_humidity;BME280_pressure;Samples;Min_cycle;Max_cycle;Signal;HPM_P1;HPM_P2
2022/01/18 00:01:40;;;;;;;;;;;;;;;;;;5063634;28;20270;-78
2022/01/18 00:04:07;;;;;;;;;;;;;;;;;;5051027;28;19966;-78
2022/01/18 00:06:33;;;;;;;;;;;;;;;;;;5049191;28;19924;-78
2022/01/18 00:08:59;;;;;;;;;;;;;;;;;;5069631;28;20378;-78
2022/01/18 00:11:43;;;;;;;;;;;;;;;;;;5065775;28;19927;-78
2022/01/18 00:14:40;;;;;;;;;;;;;;;;;;5073185;28;20402;-78
2022/01/18 00:17:29;;;;;;;;;;;;;;;;;;5069027;28;20006;-78
2022/01/18 00:19:57;;;;;;;;;;;;;;;;;;5069757;28;20022;-78
2022/01/18 00:22:25;;;;;;;;;;;;;;;;;;5066276;28;19920;-79
2022/01/18 00:24:53;;;;;;;;;;;;;;;;;;5072027;28;19981;-78
2022/01/18 00:27:19;;;;;;;;;;;;;;;;;;5070834;28;19932;-78
2022/01/18 00:35:11;;;;;;;;;;;;;;;;;;5069613;28;19920;-78
2022/01/18 00:37:51;;;;;;;;;;;;;;;;;;5066597;28;20039;-78
2022/01/18 00:40:17;;;;;;;;;;;;;;;;;;5071164;28;20371;-78
2022/01/18 00:42:43;;;;;;;;;;;;;;;;;;5062219;28;20327;-78
2022/01/18 00:45:10;;;;;;;;;;;;;;;;;;5055649;28;20274;-78
2022/01/18 00:47:36;;;;;;;;;;;;;;;;;;5051841;28;19928;-78
2022/01/18 00:50:03;;;;;;;;;;;;;;;;;;5069141;28;19927;-78
2022/01/18 00:52:32;;;;;;;;;;;;;;;;;;5064483;28;19928;-78
2022/01/18 00:55:02;;;;;;;;;;;;;;;;;;5068404;28;19995;-78
2022/01/18 00:57:28;;;;;;;;;;;;;;;;;;5066265;28;19998;-78
2022/01/18 00:59:54;;;;;;;;;;;;;;;;;;5068325;28;19970;-78
2022/01/18 01:02:20;;;;;;;;;;;;;;;;;;5066364;28;20392;-78
2022/01/18 01:04:58;;;;;;;;;;;;;;;;;;5083111;28;19978;-78
2022/01/18 01:07:25;;;;;;;;;;;;;;;;;;5046762;28;19962;-78
2022/01/18 01:09:53;;;;;;;;;;;;;;;;;;5066863;28;19916;-78
2022/01/18 01:12:23;;;;;;;;;;;;;;;;;;5061008;28;19963;-78
2022/01/18 01:14:52;;;;;;;;;;;;;;;;;;5064862;28;20371;-78
2022/01/18 01:17:32;;;;;;;;;;;;;;;;;;5067037;28;19931;-78
2022/01/18 01:41:50;;;;;;;;;;;;;;;;;;5027654;28;19937;-78
2022/01/18 01:44:24;;;;;;;;;;;;;;;;;;5033431;28;19935;-78
2022/01/18 01:46:50;;;;;;;;;;;;;;;;;;5032994;28;20032;-78
2022/01/18 01:49:16;;;;;;;;;;;;;;;;;;4999921;28;20041;-78
2022/01/18 01:51:43;;;;;;;;;;;;;;;;;;5027834;28;20579;-78
2022/01/18 01:54:10;;;;;;;;;;;;;;;;;;5015667;28;19935;-78
2022/01/18 01:56:36;;;;;;;;;;;;;;;;;;5011602;28;19928;-78
2022/01/18 01:59:02;;;;;;;;;;;;;;;;;;5018410;28;20342;-78
2022/01/18 02:01:29;;;;;;;;;;;;;;;;;;5061999;28;20029;-78
2022/01/18 02:03:56;;;;;;;;;;;;;;;;;;5066086;28;20375;-78
2022/01/18 02:06:38;;;;;;;;;;;;;;;;;;5061747;28;19931;-78
2022/01/18 02:09:04;;;;;;;;;;;;;;;;;;5071704;28;19927;-78
2022/01/18 02:11:31;;;;;;;;;;;;;;;;;;5059996;28;19921;-78
2022/01/18 02:13:57;;;;;;;;;;;;;;;;;;5060468;28;20435;-78
2022/01/18 02:22:00;;;;;;;;;;;;;;;;;;5070613;28;19932;-78
2022/01/18 02:24:26;;;;;;;;;;;;;;;;;;5055469;28;19916;-78
2022/01/18 02:26:52;;;;;;;;;;;;;;;;;;5071424;28;20325;-78
2022/01/18 02:29:18;;;;;;;;;;;;;;;;;;5071615;28;19970;-78
2022/01/18 02:31:44;;;;;;;;;;;;;;;;;;5062833;28;19927;-78
2022/01/18 02:34:11;;;;;;;;;;;;;;;;;;5055017;28;19924;-78
2022/01/18 02:36:57;;;;;;;;;;;;;;;;;;5051216;28;19965;-78
2022/01/18 02:39:39;;;;;;;;;;;;;;;;;;5024035;28;20013;-78
2022/01/18 02:42:06;;;;;;;;;;;;;;;;;;5043798;28;19931;-78
2022/01/18 02:44:33;;;;;;;;;;;;;;;;;;5026527;28;19920;-78
2022/01/18 02:47:00;;;;;;;;;;;;;;;;;;5028221;28;19923;-78
2022/01/18 02:49:27;;;;;;;;;;;;;;;;;;5027847;28;19927;-78
2022/01/18 02:51:54;;;;;;;;;;;;;;;;;;5048856;28;19924;-78
2022/01/18 02:54:23;;;;;;;;;;;;;;;;;;5035147;28;19971;-78
2022/01/18 02:56:55;;;;;;;;;;;;;;;;;;5049341;28;19920;-78
2022/01/18 03:04:42;;;;;;;;;;;;;;;;;;5048964;28;20063;-78
2022/01/18 03:07:08;;;;;;;;;;;;;;;;;;5039893;28;19978;-78
2022/01/18 03:09:34;;;;;;;;;;;;;;;;;;5031753;28;19952;-78
2022/01/18 03:12:00;;;;;;;;;;;;;;;;;;5054518;28;20339;-78
2022/01/18 03:14:26;;;;;;;;;;;;;;;;;;5033658;28;19920;-78
2022/01/18 03:16:52;;;;;;;;;;;;;;;;;;5042166;28;20005;-78
2022/01/18 03:19:18;;;;;;;;;;;;;;;;;;5057674;28;20294;-78
2022/01/18 03:21:44;;;;;;;;;;;;;;;;;;5032209;28;19931;-78
2022/01/18 03:24:30;;;;;;;;;;;;;;;;;;5058656;28;20019;-78
2022/01/18 03:29:42;;;;;;;;;;;;;;;;;;5051179;28;19964;-78
2022/01/18 03:32:09;;;;;;;;;;;;;;;;;;5038473;28;19929;-78
2022/01/18 03:34:38;;;;;;;;;;;;;;;;;;5054715;28;19927;-78
2022/01/18 03:37:04;;;;;;;;;;;;;;;;;;5043311;28;20277;-78
2022/01/18 03:39:30;;;;;;;;;;;;;;;;;;5064961;28;20237;-78
2022/01/18 03:42:11;;;;;;;;;;;;;;;;;;5060376;28;19924;-78
2022/01/18 03:44:38;;;;;;;;;;;;;;;;;;5056713;28;19924;-78
2022/01/18 03:47:04;;;;;;;;;;;;;;;;;;5057082;28;19925;-78
2022/01/18 03:49:39;;;;;;;;;;;;;;;;;;5049846;28;19928;-78
2022/01/18 03:52:05;;;;;;;;;;;;;;;;;;5066401;28;19978;-78
2022/01/18 03:54:31;;;;;;;;;;;;;;;;;;5067456;28;20045;-78
2022/01/18 03:56:58;;;;;;;;;;;;;;;;;;5068384;28;19999;-78
2022/01/18 03:59:24;;;;;;;;;;;;;;;;;;5064307;28;19964;-79
2022/01/18 04:01:50;;;;;;;;;;;;;;;;;;5072866;28;20032;-79
2022/01/18 04:04:19;;;;;;;;;;;;;;;;;;5073707;28;19924;-78
2022/01/18 04:06:48;;;;;;;;;;;;;;;;;;5067045;28;19921;-78
2022/01/18 04:09:16;;;;;;;;;;;;;;;;;;5072959;28;19928;-78
2022/01/18 04:11:42;;;;;;;;;;;;;;;;;;5066469;28;22981;-78
2022/01/18 04:14:26;;;;;;;;;;;;;;;;;;5027831;28;19925;-78
2022/01/18 04:28:26;;;;;;;;;;;;;;;;;;5013634;28;19928;-78
2022/01/18 04:30:59;;;;;;;;;;;;;;;;;;5010389;28;19920;-78
2022/01/18 04:33:25;;;;;;;;;;;;;;;;;;5008188;28;20331;-78
2022/01/18 04:35:51;;;;;;;;;;;;;;;;;;5015348;28;19932;-78
2022/01/18 04:38:17;;;;;;;;;;;;;;;;;;5032958;28;19976;-78
2022/01/18 04:40:45;;;;;;;;;;;;;;;;;;5011743;28;22077;-78
2022/01/18 04:43:18;;;;;;;;;;;;;;;;;;5028037;28;20435;-78
2022/01/18 04:48:41;;;;;;;;;;;;;;;;;;5066408;28;20275;-78
2022/01/18 04:51:07;;;;;;;;;;;;;;;;;;5080409;28;20014;-78
2022/01/18 04:53:34;;;;;;;;;;;;;;;;;;5092718;27;19924;-78
2022/01/18 04:56:03;;;;;;;;;;;;;;;;;;5091329;28;19927;-78
2022/01/18 04:58:30;;;;;;;;;;;;;;;;;;5091079;28;19920;-78
2022/01/18 05:00:58;;;;;;;;;;;;;;;;;;5090319;28;19931;-78
2022/01/18 05:03:40;;;;;;;;;;;;;;;;;;5086405;28;19966;-78
2022/01/18 05:06:14;;;;;;;;;;;;;;;;;;5072160;28;20383;-78
2022/01/18 05:08:48;;;;;;;;;;;;;;;;;;5069519;28;19928;-78
2022/01/18 05:11:18;;;;;;;;;;;;;;;;;;5070735;28;19920;-78
2022/01/18 05:19:07;;;;;;;;;;;;;;;;;;5072369;28;19926;-79
2022/01/18 05:22:56;;;;;;;;;;;;;;;;;;5070482;28;19973;-79
2022/01/18 05:24:22;;;;;;;;;;;;;;;;;;5076981;28;19955;-78
2022/01/18 05:26:54;;;;;;;;;;;;;;;;;;5070409;28;19927;-77
2022/01/18 05:29:20;;;;;;;;;;;;;;;;;;5061976;28;19928;-78
2022/01/18 05:31:46;;;;;;;;;;;;;;;;;;5069654;28;20665;-78
2022/01/18 05:34:16;;;;;;;;;;;;;;;;;;5070182;28;20401;-78
2022/01/18 05:36:42;;;;;;;;;;;;;;;;;;5056026;28;22431;-78
2022/01/18 05:39:09;;;;;;;;;;;;;;;;;;5089902;28;19945;-77
2022/01/18 05:41:36;;;;;;;;;;;;;;;;;;5064428;28;20027;-78
2022/01/18 05:44:03;;;;;;;;;;;;;;;;;;5070413;28;19927;-78
2022/01/18 05:46:30;;;;;;;;;;;;;;;;;;5066273;28;19923;-78
2022/01/18 05:48:56;;;;;;;;;;;;;;;;;;5073342;28;19927;-78
2022/01/18 05:51:22;;;;;;;;;;;;;;;;;;5067825;28;20290;-78
2022/01/18 05:53:49;;;;;;;;;;;;;;;;;;5073421;28;23428;-78
2022/01/18 05:56:16;;;;;;;;;;;;;;;;;;5070566;28;19963;-78
2022/01/18 05:58:45;;;;;;;;;;;;;;;;;;5065344;28;21067;-78
2022/01/18 06:01:13;;;;;;;;;;;;;;;;;;5070553;28;20285;-78
2022/01/18 06:06:55;;;;;;;;;;;;;;;;;;5060741;28;20325;-78
2022/01/18 06:09:22;;;;;;;;;;;;;;;;;;5073757;28;19930;-79
2022/01/18 06:11:49;;;;;;;;;;;;;;;;;;5073980;28;21082;-79
2022/01/18 06:14:15;;;;;;;;;;;;;;;;;;5071947;28;19973;-79
2022/01/18 06:16:42;;;;;;;;;;;;;;;;;;5066713;28;20398;-79
2022/01/18 06:19:08;;;;;;;;;;;;;;;;;;5069471;28;19925;-79
2022/01/18 06:21:34;;;;;;;;;;;;;;;;;;5069731;28;19928;-80
2022/01/18 06:24:00;;;;;;;;;;;;;;;;;;5067886;28;20405;-79
2022/01/18 06:26:27;;;;;;;;;;;;;;;;;;5066326;28;19923;-80
2022/01/18 06:28:55;;;;;;;;;;;;;;;;;;5064130;28;19925;-80
2022/01/18 06:31:24;;;;;;;;;;;;;;;;;;5065710;28;19982;-81
2022/01/18 06:33:51;;;;;;;;;;;;;;;;;;5068994;28;19974;-79
2022/01/18 06:36:18;;;;;;;;;;;;;;;;;;5059194;28;19920;-78
2022/01/18 06:38:45;;;;;;;;;;;;;;;;;;5067687;28;19951;-79
2022/01/18 06:41:11;;;;;;;;;;;;;;;;;;5074105;28;19960;-78
2022/01/18 06:43:38;;;;;;;;;;;;;;;;;;5073957;28;19920;-78
2022/01/18 06:46:05;;;;;;;;;;;;;;;;;;5077243;28;19979;-78
2022/01/18 06:48:31;;;;;;;;;;;;;;;;;;5068949;28;20323;-78
2022/01/18 06:50:58;;;;;;;;;;;;;;;;;;5071867;28;19963;-79
2022/01/18 06:53:24;;;;;;;;;;;;;;;;;;5072858;28;20012;-79
2022/01/18 06:55:53;;;;;;;;;;;;;;;;;;5062103;28;20504;-77
2022/01/18 06:58:20;;;;;;;;;;;;;;;;;;5075713;28;20011;-78
2022/01/18 07:00:46;;;;;;;;;;;;;;;;;;5086017;28;19931;-78
2022/01/18 07:03:12;;;;;;;;;;;;;;;;;;5054212;28;19946;-77
2022/01/18 07:05:39;;;;;;;;;;;;;;;;;;5070909;28;20049;-78
2022/01/18 07:08:07;;;;;;;;;;;;;;;;;;5077306;28;19935;-78
2022/01/18 07:10:34;;;;;;;;;;;;;;;;;;5070383;28;19924;-78
2022/01/18 07:13:01;;;;;;;;;;;;;;;;;;5057797;28;19927;-78
2022/01/18 07:15:45;;;;;;;;;;;;;;;;;;5088090;28;20000;-78
2022/01/18 07:18:11;;;;;;;;;;;;;;;;;;5041552;28;19928;-78
2022/01/18 07:20:40;;;;;;;;;;;;;;;;;;5066443;28;20263;-78
2022/01/18 07:23:11;;;;;;;;;;;;;;;;;;5072585;28;19927;-79
2022/01/18 07:25:43;;;;;;;;;;;;;;;;;;5069709;28;19930;-78
2022/01/18 07:28:10;;;;;;;;;;;;;;;;;;5079047;28;19958;-79
2022/01/18 07:30:37;;;;;;;;;;;;;;;;;;5054067;28;20290;-78
2022/01/18 07:33:03;;;;;;;;;;;;;;;;;;5061180;28;19924;-77
2022/01/18 07:35:44;;;;;;;;;;;;;;;;;;5047419;28;19935;-78
2022/01/18 07:38:12;;;;;;;;;;;;;;;;;;5013955;28;19932;-78
2022/01/18 07:40:39;;;;;;;;;;;;;;;;;;5027861;28;20104;-78
2022/01/18 07:43:05;;;;;;;;;;;;;;;;;;5028710;28;19925;-78
2022/01/18 07:45:32;;;;;;;;;;;;;;;;;;5028141;28;19981;-80
2022/01/18 07:47:59;;;;;;;;;;;;;;;;;;5024871;28;19920;-80
2022/01/18 07:50:26;;;;;;;;;;;;;;;;;;5036324;28;20394;-80
2022/01/18 07:52:52;;;;;;;;;;;;;;;;;;5050131;28;19959;-80
2022/01/18 07:55:19;;;;;;;;;;;;;;;;;;5055028;28;20453;-80
2022/01/18 07:57:45;;;;;;;;;;;;;;;;;;5045185;28;19920;-80
2022/01/18 08:00:13;;;;;;;;;;;;;;;;;;5053228;28;19924;-80
2022/01/18 08:02:40;;;;;;;;;;;;;;;;;;5049790;28;19920;-80
2022/01/18 08:05:06;;;;;;;;;;;;;;;;;;5053490;28;19979;-80
2022/01/18 08:07:32;;;;;;;;;;;;;;;;;;5078884;28;20379;-80
2022/01/18 08:09:58;;;;;;;;;;;;;;;;;;5087568;27;20008;-80
2022/01/18 08:12:39;;;;;;;;;;;;;;;;;;5048352;28;20367;-80
2022/01/18 08:15:13;;;;;;;;;;;;;;;;;;5048804;28;20315;-80
2022/01/18 08:17:40;;;;;;;;;;;;;;;;;;5048655;28;20335;-80
2022/01/18 08:20:06;;;;;;;;;;;;;;;;;;5051293;28;19932;-80
2022/01/18 08:22:33;;;;;;;;;;;;;;;;;;5040864;28;19917;-80
2022/01/18 08:24:59;;;;;;;;;;;;;;;;;;5017152;28;19924;-80
2022/01/18 08:27:25;;;;;;;;;;;;;;;;;;5046222;28;19935;-80
2022/01/18 08:29:51;;;;;;;;;;;;;;;;;;5048671;28;19931;-80
2022/01/18 08:32:17;;;;;;;;;;;;;;;;;;5049439;28;19924;-80
2022/01/18 08:34:43;;;;;;;;;;;;;;;;;;5046060;28;20754;-80
2022/01/18 08:37:09;;;;;;;;;;;;;;;;;;5048109;28;20309;-80
2022/01/18 08:39:50;;;;;;;;;;;;;;;;;;4995058;28;19984;-82
2022/01/18 08:42:17;;;;;;;;;;;;;;;;;;4977132;28;19926;-80
2022/01/18 08:44:44;;;;;;;;;;;;;;;;;;5031672;28;19931;-80
2022/01/18 08:47:10;;;;;;;;;;;;;;;;;;5036983;28;20306;-80
2022/01/18 08:49:36;;;;;;;;;;;;;;;;;;5031915;28;20841;-80
2022/01/18 08:52:02;;;;;;;;;;;;;;;;;;5034075;28;19928;-80
2022/01/18 08:54:28;;;;;;;;;;;;;;;;;;5033058;28;19929;-80
2022/01/18 08:56:55;;;;;;;;;;;;;;;;;;5037578;28;19921;-80
2022/01/18 08:59:20;;;;;;;;;;;;;;;;;;5023545;28;20441;-80
2022/01/18 09:01:50;;;;;;;;;;;;;;;;;;5036295;28;19920;-80
2022/01/18 09:04:17;;;;;;;;;;;;;;;;;;5018919;28;19927;-80
2022/01/18 09:06:46;;;;;;;;;;;;;;;;;;5014768;28;19924;-80
2022/01/18 09:09:16;;;;;;;;;;;;;;;;;;5021891;28;20417;-80
2022/01/18 09:11:43;;;;;;;;;;;;;;;;;;5056633;28;19936;-80
2022/01/18 09:14:09;;;;;;;;;;;;;;;;;;5069047;28;19925;-80
2022/01/18 09:16:35;;;;;;;;;;;;;;;;;;5064381;28;20010;-80
2022/01/18 09:19:03;;;;;;;;;;;;;;;;;;5070287;28;19928;-80
2022/01/18 09:21:32;;;;;;;;;;;;;;;;;;5061908;28;19970;-80
2022/01/18 09:23:58;;;;;;;;;;;;;;;;;;5073869;28;19920;-80
2022/01/18 09:26:39;;;;;;;;;;;;;;;;;;5068716;28;19992;-80
2022/01/18 09:29:09;;;;;;;;;;;;;;;;;;5063466;28;19925;-80
2022/01/18 09:31:36;;;;;;;;;;;;;;;;;;5044634;28;20379;-80
2022/01/18 09:34:01;;;;;;;;;;;;;;;;;;5039887;28;19929;-80
2022/01/18 09:36:29;;;;;;;;;;;;;;;;;;5048834;28;20354;-80
2022/01/18 09:38:55;;;;;;;;;;;;;;;;;;5073014;28;19938;-81
2022/01/18 09:41:26;;;;;;;;;;;;;;;;;;5061858;28;19928;-81
2022/01/18 09:43:52;;;;;;;;;;;;;;;;;;5070743;28;19921;-80
2022/01/18 09:46:18;;;;;;;;;;;;;;;;;;5034263;28;19982;-81
2022/01/18 09:48:44;;;;;;;;;;;;;;;;;;5047853;28;20269;-80
2022/01/18 09:51:11;;;;;;;;;;;;;;;;;;5069042;28;19982;-80
2022/01/18 09:53:52;;;;;;;;;;;;;;;;;;5030994;28;20206;-80
2022/01/18 09:56:18;;;;;;;;;;;;;;;;;;5014090;28;19925;-80
2022/01/18 09:58:44;;;;;;;;;;;;;;;;;;5009156;28;19929;-80
2022/01/18 10:01:10;;;;;;;;;;;;;;;;;;5031002;28;19968;-80
2022/01/18 10:03:37;;;;;;;;;;;;;;;;;;5011085;28;19960;-80
2022/01/18 10:06:03;;;;;;;;;;;;;;;;;;5010180;28;20378;-80
2022/01/18 10:08:29;;;;;;;;;;;;;;;;;;5028702;28;19925;-80
2022/01/18 10:10:55;;;;;;;;;;;;;;;;;;5009153;28;19921;-80
2022/01/18 10:13:22;;;;;;;;;;;;;;;;;;5011955;28;20003;-80
2022/01/18 10:15:48;;;;;;;;;;;;;;;;;;5031255;28;20529;-80
2022/01/18 10:18:14;;;;;;;;;;;;;;;;;;5031714;28;20071;-80
2022/01/18 10:20:40;;;;;;;;;;;;;;;;;;5005167;28;20036;-80
2022/01/18 10:23:07;;;;;;;;;;;;;;;;;;5011355;28;20055;-80
2022/01/18 10:25:34;;;;;;;;;;;;;;;;;;5009896;28;19925;-80
2022/01/18 10:28:00;;;;;;;;;;;;;;;;;;5017416;28;19929;-80
2022/01/18 10:30:50;;;;;;;;;;;;;;;;;;5028107;28;20374;-80
2022/01/18 10:33:18;;;;;;;;;;;;;;;;;;5065401;28;19930;-80
2022/01/18 10:35:44;;;;;;;;;;;;;;;;;;5068129;28;19970;-80
2022/01/18 10:38:10;;;;;;;;;;;;;;;;;;5069305;28;20026;-80
2022/01/18 10:40:36;;;;;;;;;;;;;;;;;;5064358;28;20003;-80
2022/01/18 10:43:06;;;;;;;;;;;;;;;;;;5071234;28;20010;-80
2022/01/18 10:45:35;;;;;;;;;;;;;;;;;;5067460;28;19927;-80
2022/01/18 10:48:02;;;;;;;;;;;;;;;;;;5072254;28;19920;-80
2022/01/18 10:50:29;;;;;;;;;;;;;;;;;;5067711;28;19920;-80
2022/01/18 10:52:55;;;;;;;;;;;;;;;;;;5080269;28;20135;-80
2022/01/18 10:55:21;;;;;;;;;;;;;;;;;;5087106;28;20007;-80
2022/01/18 10:57:47;;;;;;;;;;;;;;;;;;5090476;28;19923;-80
2022/01/18 11:00:13;;;;;;;;;;;;;;;;;;5095172;27;20730;-80
2022/01/18 11:02:39;;;;;;;;;;;;;;;;;;5089194;28;19961;-80
2022/01/18 11:05:05;;;;;;;;;;;;;;;;;;5073726;28;20378;-80
2022/01/18 11:07:31;;;;;;;;;;;;;;;;;;5070632;28;20394;-80
2022/01/18 11:09:57;;;;;;;;;;;;;;;;;;5057996;28;19926;-80
2022/01/18 11:12:27;;;;;;;;;;;;;;;;;;5058590;28;19927;-80
2022/01/18 11:15:19;;;;;;;;;;;;;;;;;;5088676;28;19981;-80
2022/01/18 11:17:58;;;;;;;;;;;;;;;;;;5094038;27;19927;-80
2022/01/18 11:20:24;;;;;;;;;;;;;;;;;;5051285;28;19932;-80
2022/01/18 11:22:50;;;;;;;;;;;;;;;;;;5070163;28;19961;-80
2022/01/18 11:25:17;;;;;;;;;;;;;;;;;;5071981;28;19920;-80
2022/01/18 11:27:48;;;;;;;;;;;;;;;;;;5053628;28;20332;-80
2022/01/18 11:30:17;;;;;;;;;;;;;;;;;;5058879;28;19927;-80
2022/01/18 11:32:43;;;;;;;;;;;;;;;;;;5071380;28;19973;-80
2022/01/18 11:35:09;;;;;;;;;;;;;;;;;;5092352;27;19924;-81
2022/01/18 11:37:35;;;;;;;;;;;;;;;;;;5054978;28;19928;-80
2022/01/18 11:40:01;;;;;;;;;;;;;;;;;;5071867;28;19930;-80
2022/01/18 11:42:29;;;;;;;;;;;;;;;;;;5058079;28;19934;-80
2022/01/18 11:44:55;;;;;;;;;;;;;;;;;;5061711;28;19920;-80
2022/01/18 11:47:21;;;;;;;;;;;;;;;;;;5071358;28;19961;-80
2022/01/18 11:49:50;;;;;;;;;;;;;;;;;;5069870;28;19959;-80
2022/01/18 11:52:17;;;;;;;;;;;;;;;;;;5096188;27;20297;-81
2022/01/18 11:57:29;;;;;;;;;;;;;;;;;;5073736;28;19923;-81
2022/01/18 11:59:55;;;;;;;;;;;;;;;;;;5088121;27;19924;-80
2022/01/18 12:02:21;;;;;;;;;;;;;;;;;;5071453;28;19977;-80
2022/01/18 12:04:54;;;;;;;;;;;;;;;;;;5094928;27;19928;-80
2022/01/18 12:07:21;;;;;;;;;;;;;;;;;;5076297;27;20026;-80
2022/01/18 12:09:48;;;;;;;;;;;;;;;;;;5076028;28;19924;-80
2022/01/18 12:12:14;;;;;;;;;;;;;;;;;;5072028;28;19939;-80
2022/01/18 12:14:43;;;;;;;;;;;;;;;;;;5068002;28;19931;-80
2022/01/18 12:17:09;;;;;;;;;;;;;;;;;;5074613;28;19926;-80
2022/01/18 12:19:35;;;;;;;;;;;;;;;;;;5068762;28;19925;-80
2022/01/18 12:22:01;;;;;;;;;;;;;;;;;;5071262;28;19924;-80
2022/01/18 12:24:27;;;;;;;;;;;;;;;;;;5072329;28;19920;-80
2022/01/18 12:27:01;;;;;;;;;;;;;;;;;;5073245;28;19928;-80
2022/01/18 12:32:17;;;;;;;;;;;;;;;;;;5091398;28;20270;-80
2022/01/18 12:34:44;;;;;;;;;;;;;;;;;;5070130;28;19928;-80
2022/01/18 12:37:13;;;;;;;;;;;;;;;;;;5073057;28;19919;-80
2022/01/18 12:39:40;;;;;;;;;;;;;;;;;;5086731;27;20341;-80
2022/01/18 12:42:12;;;;;;;;;;;;;;;;;;5096881;28;19978;-80
2022/01/18 12:44:39;;;;;;;;;;;;;;;;;;5066956;28;19920;-80
2022/01/18 12:47:07;;;;;;;;;;;;;;;;;;5072314;28;21816;-80
2022/01/18 12:49:33;;;;;;;;;;;;;;;;;;5073425;27;19926;-80
2022/01/18 12:51:59;;;;;;;;;;;;;;;;;;5055364;28;19935;-80
2022/01/18 12:54:26;;;;;;;;;;;;;;;;;;5066479;28;20263;-80
2022/01/18 12:56:52;;;;;;;;;;;;;;;;;;5055898;28;19934;-80
2022/01/18 12:59:22;;;;;;;;;;;;;;;;;;5090901;28;19978;-80
2022/01/18 13:01:57;;;;;;;;;;;;;;;;;;5087936;28;19927;-80
2022/01/18 13:04:27;;;;;;;;;;;;;;;;;;5083410;28;20348;-80
2022/01/18 13:06:56;;;;;;;;;;;;;;;;;;5092885;27;20081;-80
2022/01/18 13:09:22;;;;;;;;;;;;;;;;;;5090904;28;20390;-80
2022/01/18 13:11:54;;;;;;;;;;;;;;;;;;5091402;28;20400;-80
2022/01/18 13:14:29;;;;;;;;;;;;;;;;;;5084680;28;19943;-80
2022/01/18 13:25:14;;;;;;;;;;;;;;;;;;5074228;28;19965;-80
2022/01/18 13:27:46;;;;;;;;;;;;;;;;;;5070590;28;20359;-80
2022/01/18 13:30:16;;;;;;;;;;;;;;;;;;5071655;28;19920;-80
2022/01/18 13:32:44;;;;;;;;;;;;;;;;;;5071809;28;19974;-79
2022/01/18 13:35:11;;;;;;;;;;;;;;;;;;5072169;28;19916;-79
2022/01/18 13:37:38;;;;;;;;;;;;;;;;;;5065896;28;19920;-80
2022/01/18 13:40:04;;;;;;;;;;;;;;;;;;5075696;28;20381;-79
2022/01/18 13:42:32;;;;;;;;;;;;;;;;;;5070848;28;19926;-80
2022/01/18 13:44:58;;;;;;;;;;;;;;;;;;5093184;28;20351;-79
2022/01/18 13:47:24;;;;;;;;;;;;;;;;;;5071326;28;19974;-79
2022/01/18 13:49:50;;;;;;;;;;;;;;;;;;5078937;28;19931;-80
2022/01/18 13:52:19;;;;;;;;;;;;;;;;;;5065985;28;19928;-80
2022/01/18 13:54:49;;;;;;;;;;;;;;;;;;5068514;28;20401;-79
2022/01/18 13:57:15;;;;;;;;;;;;;;;;;;5070771;28;19928;-79
2022/01/18 13:59:42;;;;;;;;;;;;;;;;;;5065350;28;20585;-79
2022/01/18 14:02:08;;;;;;;;;;;;;;;;;;5070314;28;19993;-79
2022/01/18 14:04:34;;;;;;;;;;;;;;;;;;5071562;28;20387;-79
2022/01/18 14:07:00;;;;;;;;;;;;;;;;;;5069744;28;19996;-79
2022/01/18 14:09:27;;;;;;;;;;;;;;;;;;5066395;28;20719;-79
2022/01/18 14:11:53;;;;;;;;;;;;;;;;;;5064987;28;19928;-79
2022/01/18 14:14:21;;;;;;;;;;;;;;;;;;5070630;28;20457;-79
2022/01/18 14:16:48;;;;;;;;;;;;;;;;;;5075106;28;19996;-80
2022/01/18 14:19:14;;;;;;;;;;;;;;;;;;5068296;28;19928;-79
2022/01/18 14:21:41;;;;;;;;;;;;;;;;;;5056949;28;20069;-79
2022/01/18 14:24:09;;;;;;;;;;;;;;;;;;5078348;28;20007;-79
2022/01/18 14:26:35;;;;;;;;;;;;;;;;;;5067957;28;19924;-80
2022/01/18 14:29:03;;;;;;;;;;;;;;;;;;5069433;28;19932;-79
2022/01/18 14:31:29;;;;;;;;;;;;;;;;;;5067518;28;20290;-79
2022/01/18 14:33:55;;;;;;;;;;;;;;;;;;5073163;28;19924;-79
2022/01/18 14:36:21;;;;;;;;;;;;;;;;;;5071264;28;19921;-79
2022/01/18 14:38:47;;;;;;;;;;;;;;;;;;5058106;28;20016;-79
2022/01/18 14:41:14;;;;;;;;;;;;;;;;;;5073250;28;20075;-79
2022/01/18 14:43:42;;;;;;;;;;;;;;;;;;5064779;28;20373;-79
2022/01/18 14:46:26;;;;;;;;;;;;;;;;;;5069390;28;19978;-79
2022/01/18 14:48:58;;;;;;;;;;;;;;;;;;5074520;28;19928;-79
2022/01/18 14:51:27;;;;;;;;;;;;;;;;;;5048818;28;19928;-78
2022/01/18 14:53:54;;;;;;;;;;;;;;;;;;5069783;28;20327;-78
2022/01/18 14:56:23;;;;;;;;;;;;;;;;;;5068645;28;19932;-79
2022/01/18 14:58:53;;;;;;;;;;;;;;;;;;5076050;28;20014;-79
2022/01/18 15:01:19;;;;;;;;;;;;;;;;;;5072196;28;20348;-79
2022/01/18 15:03:45;;;;;;;;;;;;;;;;;;5067770;28;19921;-79
2022/01/18 15:06:11;;;;;;;;;;;;;;;;;;5056989;28;19973;-78
2022/01/18 15:08:37;;;;;;;;;;;;;;;;;;5051747;28;19928;-79
2022/01/18 15:11:03;;;;;;;;;;;;;;;;;;5072854;28;19928;-79
2022/01/18 15:13:29;;;;;;;;;;;;;;;;;;5064050;28;19931;-78
2022/01/18 15:15:55;;;;;;;;;;;;;;;;;;5072648;28;19936;-78
2022/01/18 15:18:25;;;;;;;;;;;;;;;;;;5069108;28;20363;-78
2022/01/18 15:20:51;;;;;;;;;;;;;;;;;;5075499;28;19971;-78
2022/01/18 15:23:17;;;;;;;;;;;;;;;;;;5059224;28;19962;-78
2022/01/18 15:25:43;;;;;;;;;;;;;;;;;;5061283;28;19934;-78
2022/01/18 15:28:16;;;;;;;;;;;;;;;;;;5054882;28;19920;-78
2022/01/18 15:30:42;;;;;;;;;;;;;;;;;;5050940;28;19928;-78
2022/01/18 15:33:09;;;;;;;;;;;;;;;;;;5072029;28;19985;-78
2022/01/18 15:35:35;;;;;;;;;;;;;;;;;;5065152;28;19936;-78
2022/01/18 15:38:01;;;;;;;;;;;;;;;;;;5049813;28;19931;-78
2022/01/18 15:40:28;;;;;;;;;;;;;;;;;;5067314;28;19932;-78
2022/01/18 15:42:54;;;;;;;;;;;;;;;;;;5070120;28;19932;-78
2022/01/18 15:45:21;;;;;;;;;;;;;;;;;;5070069;28;19920;-78
2022/01/18 15:47:47;;;;;;;;;;;;;;;;;;5067205;28;20325;-78
2022/01/18 15:50:13;;;;;;;;;;;;;;;;;;5052730;28;20017;-78
2022/01/18 15:52:39;;;;;;;;;;;;;;;;;;5045763;28;19931;-78
2022/01/18 15:55:05;;;;;;;;;;;;;;;;;;5065983;28;19971;-78
2022/01/18 15:57:31;;;;;;;;;;;;;;;;;;5066136;28;19967;-78
2022/01/18 15:59:58;;;;;;;;;;;;;;;;;;5065619;28;19941;-78
2022/01/18 16:02:24;;;;;;;;;;;;;;;;;;5063350;28;19928;-78
2022/01/18 16:04:51;;;;;;;;;;;;;;;;;;5068082;28;19916;-78
2022/01/18 16:07:17;;;;;;;;;;;;;;;;;;5053175;28;19946;-78
2022/01/18 16:09:43;;;;;;;;;;;;;;;;;;5063401;28;19928;-78
2022/01/18 16:12:09;;;;;;;;;;;;;;;;;;5064998;28;19921;-78
2022/01/18 16:14:36;;;;;;;;;;;;;;;;;;5060785;28;19924;-78
2022/01/18 16:17:11;;;;;;;;;;;;;;;;;;5065865;28;19917;-77
2022/01/18 16:19:37;;;;;;;;;;;;;;;;;;5063628;28;19928;-78
2022/01/18 16:22:03;;;;;;;;;;;;;;;;;;5072098;28;19928;-78
2022/01/18 16:24:29;;;;;;;;;;;;;;;;;;5063913;28;22732;-77
2022/01/18 16:26:55;;;;;;;;;;;;;;;;;;5068410;28;19924;-79
2022/01/18 16:29:22;;;;;;;;;;;;;;;;;;5059548;28;19924;-77
2022/01/18 16:31:53;;;;;;;;;;;;;;;;;;5063826;28;20292;-78
2022/01/18 16:34:21;;;;;;;;;;;;;;;;;;5047465;28;20015;-79
2022/01/18 16:36:50;;;;;;;;;;;;;;;;;;5064234;28;19920;-78
2022/01/18 16:39:19;;;;;;;;;;;;;;;;;;5064480;28;19924;-79
2022/01/18 16:41:46;;;;;;;;;;;;;;;;;;5064043;28;19924;-79
2022/01/18 16:44:13;;;;;;;;;;;;;;;;;;5068958;28;20013;-79
2022/01/18 16:46:48;;;;;;;;;;;;;;;;;;5062551;28;20224;-79
2022/01/18 16:49:15;;;;;;;;;;;;;;;;;;5059954;28;19924;-79
2022/01/18 16:51:41;;;;;;;;;;;;;;;;;;5053271;28;19932;-79
2022/01/18 16:54:10;;;;;;;;;;;;;;;;;;5063656;28;19972;-78
2022/01/18 16:56:36;;;;;;;;;;;;;;;;;;5059033;28;19936;-79
2022/01/18 16:59:03;;;;;;;;;;;;;;;;;;5061403;28;19963;-79
2022/01/18 17:01:31;;;;;;;;;;;;;;;;;;5061378;28;19931;-79
2022/01/18 17:03:59;;;;;;;;;;;;;;;;;;5067541;28;19920;-79
2022/01/18 17:06:25;;;;;;;;;;;;;;;;;;5065740;28;19920;-79
2022/01/18 17:08:52;;;;;;;;;;;;;;;;;;5070151;28;19920;-78
2022/01/18 17:11:18;;;;;;;;;;;;;;;;;;5065436;28;19928;-79
2022/01/18 17:13:45;;;;;;;;;;;;;;;;;;5056485;28;20388;-79
2022/01/18 17:16:26;;;;;;;;;;;;;;;;;;5057991;28;19927;-77
2022/01/18 17:18:52;;;;;;;;;;;;;;;;;;5068687;28;20316;-79
2022/01/18 17:21:28;;;;;;;;;;;;;;;;;;5059095;28;19931;-78
2022/01/18 17:23:55;;;;;;;;;;;;;;;;;;5064740;28;19928;-78
2022/01/18 17:26:21;;;;;;;;;;;;;;;;;;5066679;28;19928;-78
2022/01/18 17:28:47;;;;;;;;;;;;;;;;;;5047295;28;20283;-78
2022/01/18 17:31:17;;;;;;;;;;;;;;;;;;5063475;28;19924;-78
2022/01/18 17:33:43;;;;;;;;;;;;;;;;;;5066119;28;20914;-78
2022/01/18 17:36:09;;;;;;;;;;;;;;;;;;5065343;28;19921;-77
2022/01/18 17:38:39;;;;;;;;;;;;;;;;;;5062628;28;20011;-78
2022/01/18 17:41:05;;;;;;;;;;;;;;;;;;5065730;28;19928;-77
2022/01/18 17:43:48;;;;;;;;;;;;;;;;;;5061438;28;20468;-78
2022/01/18 17:46:15;;;;;;;;;;;;;;;;;;5065674;28;19935;-78
2022/01/18 17:48:41;;;;;;;;;;;;;;;;;;5062345;28;19928;-78
2022/01/18 17:51:07;;;;;;;;;;;;;;;;;;5069981;28;20301;-78
2022/01/18 17:53:34;;;;;;;;;;;;;;;;;;5062644;28;19993;-78
2022/01/18 17:56:01;;;;;;;;;;;;;;;;;;5071529;28;23016;-78
2022/01/18 17:58:28;;;;;;;;;;;;;;;;;;5046360;28;20019;-78
2022/01/18 18:00:55;;;;;;;;;;;;;;;;;;5052999;28;20015;-79
2022/01/18 18:03:21;;;;;;;;;;;;;;;;;;5068914;28;20398;-78
2022/01/18 18:05:50;;;;;;;;;;;;;;;;;;5065046;28;19932;-77
2022/01/18 18:08:17;;;;;;;;;;;;;;;;;;5044850;28;21058;-78
2022/01/18 18:10:43;;;;;;;;;;;;;;;;;;5067341;28;19928;-78